sensor_id;sensor_type;location;lat;lon;timestamp;temperature;humidity
55151;DHT22;41041;43.162;20.538;2023-06-10T06:29:49;537.80;2406.40
55151;DHT22;41041;43.162;20.538;2023-06-10T06:32:16;537.80;2406.40
55151;DHT22;41041;43.162;20.538;2023-06-10T06:34:41;537.60;2406.40
55151;DHT22;41041;43.162;20.538;2023-06-10T06:37:11;537.70;2406.40
55151;DHT22;41041;43.162;20.538;2023-06-10T06:39:37;537.60;2406.40
55151;DHT22;41041;43.162;20.538;2023-06-10T06:42:03;512.90;2380.80
55151;DHT22;41041;43.162;20.538;2023-06-10T06:44:29;512.60;2380.80
55151;DHT22;41041;43.162;20.538;2023-06-10T06:46:54;512.70;2380.80
55151;DHT22;41041;43.162;20.538;2023-06-10T06:49:20;512.80;2380.80
55151;DHT22;41041;43.162;20.538;2023-06-10T06:51:46;512.90;2380.80
55151;DHT22;41041;43.162;20.538;2023-06-10T06:54:13;537.90;2406.40
55151;DHT22;41041;43.162;20.538;2023-06-10T14:39:32;717.60;2432.00
55151;DHT22;41041;43.162;20.538;2023-06-10T14:41:58;717.60;2432.00
55151;DHT22;41041;43.162;20.538;2023-06-10T14:44:24;742.40;2432.00
55151;DHT22;41041;43.162;20.538;2023-06-10T14:46:49;717.60;2432.00
55151;DHT22;41041;43.162;20.538;2023-06-10T14:49:15;717.70;2432.00
55151;DHT22;41041;43.162;20.538;2023-06-10T14:51:41;717.40;2432.00
55151;DHT22;41041;43.162;20.538;2023-06-10T14:59:02;717.50;2380.80
55151;DHT22;41041;43.162;20.538;2023-06-10T15:01:27;717.70;2432.00
55151;DHT22;41041;43.162;20.538;2023-06-10T15:03:53;742.50;2432.00
55151;DHT22;41041;43.162;20.538;2023-06-10T15:06:19;742.60;2355.20
55151;DHT22;41041;43.162;20.538;2023-06-10T15:08:48;742.40;2380.80
55151;DHT22;41041;43.162;20.538;2023-06-10T15:11:49;717.60;2380.80
55151;DHT22;41041;43.162;20.538;2023-06-10T15:14:15;717.70;2380.80
55151;DHT22;41041;43.162;20.538;2023-06-10T15:26:34;742.70;2406.40
55151;DHT22;41041;43.162;20.538;2023-06-10T15:29:00;768.50;2304.00
55151;DHT22;41041;43.162;20.538;2023-06-10T15:31:31;743.30;2304.00
55151;DHT22;41041;43.162;20.538;2023-06-10T15:33:59;743.20;2329.60
55151;DHT22;41041;43.162;20.538;2023-06-10T15:36:32;743.30;2329.60
55151;DHT22;41041;43.162;20.538;2023-06-10T15:39:02;742.90;2304.00
55151;DHT22;41041;43.162;20.538;2023-06-10T15:41:28;742.40;2329.60
55151;DHT22;41041;43.162;20.538;2023-06-10T15:52:16;768.00;2329.60
55151;DHT22;41041;43.162;20.538;2023-06-10T15:54:42;742.80;2355.20
55151;DHT22;41041;43.162;20.538;2023-06-10T15:57:07;717.30;2432.00
55151;DHT22;41041;43.162;20.538;2023-06-10T15:59:56;717.40;2432.00
55151;DHT22;41041;43.162;20.538;2023-06-10T16:02:45;742.50;2432.00
55151;DHT22;41041;43.162;20.538;2023-06-10T16:05:10;742.70;2329.60
55151;DHT22;41041;43.162;20.538;2023-06-10T16:07:40;742.80;2380.80
55151;DHT22;41041;43.162;20.538;2023-06-10T16:10:06;743.00;2304.00
55151;DHT22;41041;43.162;20.538;2023-06-10T16:12:32;742.80;2278.40
55151;DHT22;41041;43.162;20.538;2023-06-10T16:18:20;717.40;2304.00
55151;DHT22;41041;43.162;20.538;2023-06-10T16:20:46;717.70;2304.00
55151;DHT22;41041;43.162;20.538;2023-06-10T16:23:11;742.40;2252.80
55151;DHT22;41041;43.162;20.538;2023-06-10T16:25:37;742.70;2227.20
55151;DHT22;41041;43.162;20.538;2023-06-10T16:28:04;717.60;2227.20
55151;DHT22;41041;43.162;20.538;2023-06-10T16:30:30;717.60;2278.40
55151;DHT22;41041;43.162;20.538;2023-06-10T16:37:51;691.70;2329.60
55151;DHT22;41041;43.162;20.538;2023-06-10T16:40:17;691.40;2406.40
55151;DHT22;41041;43.162;20.538;2023-06-10T16:42:43;666.50;2380.80
55151;DHT22;41041;43.162;20.538;2023-06-10T17:34:45;614.70;2432.00
55151;DHT22;41041;43.162;20.538;2023-06-10T17:37:10;614.60;2432.00
55151;DHT22;41041;43.162;20.538;2023-06-10T17:39:36;589.70;2432.00
55151;DHT22;41041;43.162;20.538;2023-06-10T17:42:02;589.70;2432.00
55151;DHT22;41041;43.162;20.538;2023-06-10T17:44:28;614.40;2432.00
55151;DHT22;41041;43.162;20.538;2023-06-10T19:45:29;538.00;2406.40
55151;DHT22;41041;43.162;20.538;2023-06-10T19:47:55;537.80;2406.40
55151;DHT22;41041;43.162;20.538;2023-06-10T23:00:56;461.50;2380.80
55151;DHT22;41041;43.162;20.538;2023-06-10T23:03:22;461.30;2380.80
